createdAt,value
2022-09-06T00:00:11.316Z,2.8
2022-09-06T00:02:07.801Z,2.6
2022-09-06T00:04:13.071Z,2.7
2022-09-06T00:08:07.448Z,2.8
2022-09-06T00:10:08.881Z,2.7
2022-09-06T00:12:07.193Z,3.2
2022-09-06T00:14:07.103Z,2.8
2022-09-06T00:16:09.292Z,3.0
2022-09-06T00:18:07.272Z,3.2
2022-09-06T00:20:08.621Z,3.0
2022-09-06T00:22:06.734Z,3.1
2022-09-06T00:24:06.606Z,3.0
2022-09-06T00:28:06.529Z,3.1
2022-09-06T00:30:07.103Z,3.2
2022-09-06T00:32:07.464Z,3.1
2022-09-06T00:34:05.901Z,3.0
2022-09-06T00:38:05.713Z,3.2
2022-09-06T00:40:07.320Z,3.0
2022-09-06T00:42:07.892Z,2.7
2022-09-06T00:44:05.558Z,3.2
2022-09-06T00:46:07.496Z,3.0
2022-09-06T00:50:06.749Z,2.8
2022-09-06T00:52:08.676Z,2.6
2022-09-06T00:54:06.974Z,2.8
2022-09-06T00:58:04.720Z,2.9
2022-09-06T01:02:08.225Z,2.4
2022-09-06T01:04:05.345Z,2.7
2022-09-06T01:10:22.063Z,2.6
2022-09-06T01:12:19.975Z,3.0
2022-09-06T01:14:19.193Z,2.7
2022-09-06T01:16:12.071Z,3.2
2022-09-06T01:18:16.279Z,3.1
2022-09-06T01:22:21.296Z,3.2
2022-09-06T01:24:24.641Z,3.3
2022-09-06T01:26:18.487Z,3.6
2022-09-06T01:28:22.716Z,3.2
2022-09-06T01:30:05.722Z,3.3
2022-09-06T01:32:12.184Z,3.7
2022-09-06T01:34:21.102Z,3.6
2022-09-06T01:38:04.202Z,3.5
2022-09-06T01:40:03.733Z,3.7
2022-09-06T01:42:07.073Z,3.5
2022-09-06T01:44:02.352Z,3.9
2022-09-06T01:46:10.982Z,4.1
2022-09-06T01:48:10.468Z,4.0
2022-09-06T01:50:15.313Z,3.9
2022-09-06T01:52:12.612Z,4.4
2022-09-06T01:54:14.751Z,4.2
2022-09-06T01:56:08.949Z,4.1
2022-09-06T02:00:07.410Z,4.4
2022-09-06T02:02:07.643Z,4.5
2022-09-06T02:06:06.413Z,4.2
2022-09-06T02:08:07.055Z,4.1
2022-09-06T02:10:10.395Z,4.3
2022-09-06T02:12:03.318Z,3.9
2022-09-06T02:14:05.779Z,4.0
2022-09-06T02:16:02.611Z,4.1
2022-09-06T02:18:04.579Z,3.7
2022-09-06T02:20:04.780Z,3.9
2022-09-06T02:22:03.694Z,3.8
2022-09-06T02:24:04.252Z,4.0
2022-09-06T02:26:04.107Z,3.8
2022-09-06T02:27:59.759Z,4.0
2022-09-06T02:30:01.971Z,4.1
2022-09-06T02:32:04.710Z,4.0
2022-09-06T02:34:00.575Z,4.5
2022-09-06T02:36:03.851Z,4.1
2022-09-06T02:37:58.920Z,4.3
2022-09-06T02:39:59.286Z,4.7
2022-09-06T02:42:00.610Z,4.4
2022-09-06T02:43:58.562Z,4.7
2022-09-06T02:45:58.256Z,4.8
2022-09-06T02:49:58.185Z,5.4
2022-09-06T02:51:58.050Z,5.3
2022-09-06T02:53:57.693Z,5.6
2022-09-06T02:55:57.638Z,6.1
2022-09-06T02:57:57.712Z,5.9
2022-09-06T02:59:57.384Z,6.1
2022-09-06T03:01:57.329Z,6.9
2022-09-06T03:03:57.139Z,7.3
2022-09-06T03:07:57.214Z,8.3
2022-09-06T03:09:57.339Z,8.1
2022-09-06T03:11:56.699Z,8.6
2022-09-06T03:13:56.977Z,8.5
2022-09-06T03:15:58.661Z,9.0
2022-09-06T03:17:57.521Z,8.7
2022-09-06T03:21:56.747Z,8.5
2022-09-06T03:23:58.315Z,8.7
2022-09-06T03:25:56.912Z,8.0
2022-09-06T03:27:55.957Z,8.9
2022-09-06T03:29:55.645Z,8.6
2022-09-06T03:33:55.470Z,8.9
2022-09-06T03:35:57.874Z,8.2
2022-09-06T03:37:55.104Z,8.4
2022-09-06T03:39:55.467Z,8.3
2022-09-06T03:41:54.994Z,8.5
2022-09-06T03:43:54.881Z,8.8
2022-09-06T03:45:56.609Z,8.3
2022-09-06T03:47:54.449Z,8.6
2022-09-06T03:49:54.407Z,8.4
2022-09-06T03:51:54.578Z,7.9
2022-09-06T03:53:54.628Z,7.8
2022-09-06T03:55:57.015Z,8.6
2022-09-06T03:57:53.906Z,7.9
2022-09-06T03:59:53.731Z,8.5
2022-09-06T04:03:53.321Z,8.8
2022-09-06T04:05:53.214Z,8.6
2022-09-06T04:07:53.120Z,9.1
2022-09-06T04:09:53.279Z,8.6
2022-09-06T04:11:52.882Z,8.8
2022-09-06T04:13:52.995Z,8.6
2022-09-06T04:17:52.912Z,8.7
2022-09-06T04:19:52.894Z,8.8
2022-09-06T04:21:52.889Z,9.0
2022-09-06T04:25:53.998Z,8.5
2022-09-06T04:27:51.661Z,9.1
2022-09-06T04:29:51.551Z,9.0
2022-09-06T04:31:51.490Z,8.7
2022-09-06T04:33:51.266Z,8.9
2022-09-06T04:37:50.996Z,8.5
2022-09-06T04:41:50.667Z,9.4
2022-09-06T04:43:50.521Z,8.8
2022-09-06T04:45:50.751Z,8.5
2022-09-06T04:47:50.610Z,9.9
2022-09-06T04:49:50.221Z,9.5
2022-09-06T04:51:49.827Z,8.2
2022-09-06T04:53:50.084Z,8.6
2022-09-06T04:55:49.664Z,8.8
2022-09-06T04:57:51.258Z,8.9
2022-09-06T04:59:49.279Z,9.1
2022-09-06T05:01:49.417Z,8.9
2022-09-06T05:03:49.022Z,8.7
2022-09-06T05:05:48.846Z,8.2
2022-09-06T05:07:51.527Z,8.4
2022-09-06T05:09:48.771Z,8.9
2022-09-06T05:11:48.617Z,9.2
2022-09-06T05:13:49.431Z,8.4
2022-09-06T05:15:48.593Z,8.6
2022-09-06T05:17:48.729Z,8.4
2022-09-06T05:19:48.442Z,8.2
2022-09-06T05:21:49.819Z,7.7
2022-09-06T05:23:48.444Z,8.6
2022-09-06T05:25:48.072Z,8.2
2022-09-06T05:27:47.429Z,7.9
2022-09-06T05:29:47.082Z,8.6
2022-09-06T05:31:47.001Z,8.8
2022-09-06T05:37:46.606Z,8.2
2022-09-06T05:39:46.453Z,8.6
2022-09-06T05:41:46.363Z,8.3
2022-09-06T05:43:46.254Z,8.2
2022-09-06T05:45:46.009Z,8.3
2022-09-06T05:47:45.905Z,8.2
2022-09-06T05:51:49.935Z,7.7
2022-09-06T05:53:45.669Z,7.6
2022-09-06T05:55:45.355Z,7.7
2022-09-06T05:57:45.091Z,8.2
2022-09-06T05:59:44.948Z,7.9
2022-09-06T06:01:47.516Z,7.3
2022-09-06T06:03:50.714Z,7.1
2022-09-06T06:05:46.390Z,7.5
2022-09-06T06:07:44.878Z,7.7
2022-09-06T06:09:44.555Z,7.0
2022-09-06T06:11:44.877Z,6.9
2022-09-06T06:13:44.641Z,6.1
2022-09-06T06:15:44.525Z,6.3
2022-09-06T06:17:44.570Z,6.0
2022-09-06T06:19:44.218Z,6.2
2022-09-06T06:21:43.704Z,5.9
2022-09-06T06:23:45.465Z,5.5
2022-09-06T06:25:43.397Z,5.2
2022-09-06T06:27:43.357Z,4.7
2022-09-06T06:29:43.271Z,5.0
2022-09-06T06:33:43.343Z,4.9
2022-09-06T06:35:56.788Z,4.7
2022-09-06T06:37:43.654Z,4.4
2022-09-06T06:39:42.719Z,4.2
2022-09-06T06:41:42.799Z,3.8
2022-09-06T06:43:43.272Z,4.1
2022-09-06T06:45:42.279Z,4.6
2022-09-06T06:47:42.107Z,3.9
2022-09-06T06:49:42.042Z,3.4
2022-09-06T06:51:41.906Z,3.9
2022-09-06T06:53:42.586Z,3.6
2022-09-06T06:55:47.455Z,3.5
2022-09-06T06:57:41.508Z,3.2
2022-09-06T06:59:41.425Z,3.3
2022-09-06T07:01:41.378Z,2.9
2022-09-06T07:03:41.336Z,2.7
2022-09-06T07:06:11.102Z,2.6
2022-09-06T07:07:41.603Z,2.7
2022-09-06T07:11:41.349Z,2.3
2022-09-06T07:13:41.512Z,2.6
2022-09-06T07:15:41.179Z,2.2
2022-09-06T07:17:40.921Z,2.3
2022-09-06T07:21:40.447Z,2.1
2022-09-06T07:24:06.830Z,1.9
2022-09-06T07:25:39.988Z,2.1
2022-09-06T07:27:48.509Z,1.9
2022-09-06T07:29:39.723Z,1.8
2022-09-06T07:33:40.360Z,1.8
2022-09-06T07:35:39.390Z,1.9
2022-09-06T07:37:39.357Z,2.2
2022-09-06T07:39:40.371Z,2.0
2022-09-06T07:41:39.225Z,1.9
2022-09-06T07:43:39.337Z,1.7
2022-09-06T07:45:39.058Z,1.9
2022-09-06T07:47:58.630Z,1.8
2022-09-06T07:49:39.166Z,1.9
2022-09-06T07:51:39.021Z,1.7
2022-09-06T07:53:40.866Z,1.5
2022-09-06T07:55:38.845Z,1.9
2022-09-06T07:59:42.800Z,1.8
2022-09-06T08:01:39.444Z,1.9
2022-09-06T08:03:38.576Z,2.0
2022-09-06T08:06:09.158Z,2.1
2022-09-06T08:07:38.665Z,1.9
2022-09-06T08:09:38.352Z,1.8
2022-09-06T08:11:38.934Z,1.9
2022-09-06T08:13:38.320Z,2.0
2022-09-06T08:15:41.567Z,1.9
2022-09-06T08:17:38.217Z,1.8
2022-09-06T08:19:38.198Z,1.9
2022-09-06T08:21:38.621Z,2.4
2022-09-06T08:23:39.015Z,1.9
2022-09-06T08:25:38.056Z,2.1
2022-09-06T08:27:38.072Z,2.2
2022-09-06T08:31:39.970Z,1.9
2022-09-06T08:33:39.049Z,2.2
2022-09-06T08:35:37.907Z,2.0
2022-09-06T08:37:38.090Z,1.9
2022-09-06T08:39:37.944Z,2.0
2022-09-06T08:41:47.506Z,2.1
2022-09-06T08:45:40.437Z,2.2
2022-09-06T08:47:38.142Z,1.9
2022-09-06T08:49:41.556Z,2.1
2022-09-06T08:51:52.884Z,2.5
2022-09-06T08:53:43.517Z,2.1
2022-09-06T08:55:43.686Z,2.3
2022-09-06T08:57:54.299Z,2.0
2022-09-06T08:59:40.082Z,2.3
2022-09-06T09:01:49.699Z,2.2
2022-09-06T09:03:41.623Z,2.0
2022-09-06T09:05:39.807Z,2.1
2022-09-06T09:11:41.823Z,2.3
2022-09-06T09:15:40.399Z,2.4
2022-09-06T09:17:38.943Z,2.1
2022-09-06T09:21:39.489Z,2.7
2022-09-06T09:23:38.677Z,2.1
2022-09-06T09:25:38.968Z,2.3
2022-09-06T09:27:39.032Z,2.5
2022-09-06T09:31:40.289Z,2.0
2022-09-06T09:33:38.710Z,2.2
2022-09-06T09:35:41.165Z,2.3
2022-09-06T09:37:46.706Z,2.1
2022-09-06T09:39:39.609Z,2.7
2022-09-06T09:41:42.076Z,2.4
2022-09-06T09:43:41.370Z,2.5
2022-09-06T09:49:38.544Z,2.4
2022-09-06T09:51:39.721Z,2.7
2022-09-06T09:53:49.553Z,2.3
2022-09-06T09:55:40.590Z,2.5
2022-09-06T09:57:44.794Z,2.9
2022-09-06T09:59:42.648Z,2.4
2022-09-06T10:01:39.195Z,2.3
2022-09-06T10:05:39.943Z,2.1
2022-09-06T10:07:43.432Z,2.4
2022-09-06T10:11:48.553Z,2.7
2022-09-06T10:13:41.893Z,2.3
2022-09-06T10:15:40.264Z,2.6
2022-09-06T10:19:42.018Z,2.4
2022-09-06T10:28:10.355Z,2.4
2022-09-06T10:29:46.988Z,2.1
2022-09-06T10:31:55.335Z,2.4
2022-09-06T10:33:57.687Z,1.9
2022-09-06T10:35:40.968Z,2.0
2022-09-06T10:37:47.311Z,2.4
2022-09-06T10:39:48.665Z,2.1
2022-09-06T10:45:55.179Z,1.9
2022-09-06T10:47:54.808Z,2.2
2022-09-06T10:49:44.688Z,2.1
2022-09-06T10:53:46.364Z,2.3
2022-09-06T10:55:48.027Z,2.1
2022-09-06T10:58:16.190Z,2.3
2022-09-06T11:01:48.632Z,2.4
2022-09-06T11:04:02.121Z,2.2
2022-09-06T11:05:48.800Z,2.4
2022-09-06T11:09:46.328Z,2.5
2022-09-06T11:11:50.439Z,2.4
2022-09-06T11:13:42.606Z,2.6
2022-09-06T11:15:47.906Z,2.3
2022-09-06T11:17:48.050Z,2.4
2022-09-06T11:19:48.930Z,2.5
2022-09-06T11:27:47.456Z,2.3
2022-09-06T11:29:46.974Z,2.4
2022-09-06T11:32:17.630Z,2.1
2022-09-06T11:33:43.902Z,1.7
2022-09-06T11:35:44.351Z,2.0
2022-09-06T11:37:44.266Z,2.3
2022-09-06T11:41:44.462Z,2.2
2022-09-06T11:43:47.330Z,1.9
2022-09-06T11:45:48.229Z,2.0
2022-09-06T11:47:47.126Z,2.2
2022-09-06T11:49:44.979Z,1.9
2022-09-06T11:51:46.221Z,2.3
2022-09-06T11:54:03.462Z,2.2
2022-09-06T11:59:56.620Z,1.8
2022-09-06T12:01:59.301Z,1.9
2022-09-06T12:06:06.602Z,2.1
2022-09-06T12:08:06.695Z,2.0
2022-09-06T12:09:46.951Z,1.9
2022-09-06T12:13:53.917Z,2.3
2022-09-06T12:15:53.515Z,2.1
2022-09-06T12:17:47.444Z,2.0
2022-09-06T12:19:50.837Z,2.2
2022-09-06T12:21:51.199Z,2.0
2022-09-06T12:23:47.895Z,1.8
2022-09-06T12:25:54.273Z,1.9
2022-09-06T12:27:52.675Z,1.8
2022-09-06T12:29:53.986Z,2.2
2022-09-06T12:31:52.027Z,2.1
2022-09-06T12:33:49.173Z,1.9
2022-09-06T12:35:57.629Z,2.2
2022-09-06T12:37:53.634Z,1.8
2022-09-06T12:41:54.106Z,1.9
2022-09-06T12:43:49.937Z,2.0
2022-09-06T12:45:51.684Z,1.7
2022-09-06T12:51:50.595Z,1.6
2022-09-06T12:53:50.950Z,1.8
2022-09-06T12:56:03.336Z,1.6
2022-09-06T12:57:53.571Z,1.8
2022-09-06T12:59:53.235Z,1.9
2022-09-06T13:01:57.701Z,1.4
2022-09-06T13:03:57.735Z,1.8
2022-09-06T13:07:54.421Z,1.6
2022-09-06T13:11:58.753Z,1.7
2022-09-06T13:13:54.136Z,1.8
2022-09-06T13:15:55.092Z,1.4
2022-09-06T13:18:04.685Z,1.7
2022-09-06T13:21:53.539Z,1.6
2022-09-06T13:23:53.638Z,1.4
2022-09-06T13:25:54.999Z,1.5
2022-09-06T13:27:57.302Z,1.8
2022-09-06T13:29:56.292Z,1.9
2022-09-06T13:31:56.133Z,1.4
2022-09-06T13:33:56.167Z,1.5
2022-09-06T13:36:07.382Z,1.7
2022-09-06T13:38:14.470Z,1.5
2022-09-06T13:39:56.318Z,1.4
2022-09-06T13:41:59.287Z,1.9
2022-09-06T13:43:58.429Z,1.5
2022-09-06T13:46:05.405Z,1.3
2022-09-06T13:48:07.872Z,1.5
2022-09-06T13:51:59.440Z,1.6
2022-09-06T13:54:06.830Z,1.3
2022-09-06T13:55:58.456Z,1.4
2022-09-06T13:57:56.845Z,1.3
2022-09-06T13:59:57.013Z,1.5
2022-09-06T14:03:59.014Z,1.3
2022-09-06T14:05:59.235Z,1.6
2022-09-06T14:07:57.906Z,1.5
2022-09-06T14:09:59.946Z,1.6
2022-09-06T14:11:58.815Z,1.4
2022-09-06T14:13:58.991Z,1.5
2022-09-06T14:15:59.288Z,1.6
2022-09-06T14:17:59.109Z,1.2
2022-09-06T14:19:59.484Z,1.4
2022-09-06T14:21:59.487Z,1.3
2022-09-06T14:24:04.117Z,1.2
2022-09-06T14:26:01.745Z,1.3
2022-09-06T14:32:00.914Z,1.2
2022-09-06T14:36:04.279Z,1.4
2022-09-06T14:38:01.174Z,1.2
2022-09-06T14:40:01.770Z,1.3
2022-09-06T14:46:04.407Z,1.2
2022-09-06T14:50:02.864Z,1.6
2022-09-06T14:52:02.944Z,1.8
2022-09-06T14:54:06.001Z,1.1
2022-09-06T14:56:04.580Z,1.3
2022-09-06T14:58:03.417Z,1.1
2022-09-06T15:04:06.616Z,1.3
2022-09-06T15:06:05.340Z,1.2
2022-09-06T15:08:05.216Z,1.3
2022-09-06T15:10:05.648Z,1.4
2022-09-06T15:12:05.190Z,1.3
2022-09-06T15:14:08.091Z,1.5
2022-09-06T15:16:08.272Z,1.0
2022-09-06T15:18:05.827Z,1.5
2022-09-06T15:20:06.500Z,1.3
2022-09-06T15:22:06.141Z,1.6
2022-09-06T15:24:11.037Z,1.3
2022-09-06T15:28:06.481Z,1.2
2022-09-06T15:30:07.309Z,1.4
2022-09-06T15:32:06.736Z,1.5
2022-09-06T15:34:08.029Z,1.3
2022-09-06T15:36:09.150Z,1.2
2022-09-06T15:38:07.654Z,1.4
2022-09-06T15:40:08.566Z,1.3
2022-09-06T15:42:07.998Z,1.6
2022-09-06T15:44:09.627Z,1.3
2022-09-06T15:48:08.435Z,1.2
2022-09-06T15:52:09.103Z,1.3
2022-09-06T15:54:10.960Z,1.4
2022-09-06T15:58:09.062Z,1.3
2022-09-06T16:02:09.962Z,1.5
2022-09-06T16:04:09.528Z,1.4
2022-09-06T16:06:28.452Z,1.5
2022-09-06T16:12:10.959Z,1.2
2022-09-06T16:14:12.741Z,1.3
2022-09-06T16:18:11.207Z,1.5
2022-09-06T16:20:11.365Z,1.3
2022-09-06T16:24:12.832Z,1.2
2022-09-06T16:26:11.858Z,1.4
2022-09-06T16:30:12.328Z,1.2
2022-09-06T16:32:11.954Z,1.3
2022-09-06T16:34:13.384Z,1.4
2022-09-06T16:36:12.955Z,1.3
2022-09-06T16:38:12.632Z,1.5
2022-09-06T16:40:12.561Z,1.4
2022-09-06T16:42:12.709Z,1.9
2022-09-06T16:44:16.589Z,1.7
2022-09-06T16:46:12.918Z,1.6
2022-09-06T16:48:12.797Z,1.8
2022-09-06T16:50:12.976Z,1.4
2022-09-06T16:52:13.482Z,1.7
2022-09-06T16:54:14.376Z,1.6
2022-09-06T16:56:15.585Z,1.7
2022-09-06T16:58:13.628Z,1.3
2022-09-06T17:00:15.091Z,1.6
2022-09-06T17:02:14.003Z,1.5
2022-09-06T17:06:14.844Z,1.3
2022-09-06T17:08:14.235Z,1.5
2022-09-06T17:10:14.266Z,1.7
2022-09-06T17:18:15.465Z,1.5
2022-09-06T17:20:19.473Z,1.8
2022-09-06T17:22:15.307Z,4.6
2022-09-06T17:24:15.565Z,1.6
2022-09-06T17:26:16.134Z,2.1
2022-09-06T17:30:16.179Z,3.8
2022-09-06T17:32:15.714Z,2.9
2022-09-06T17:34:15.960Z,2.1
2022-09-06T17:38:16.183Z,1.9
2022-09-06T17:40:16.156Z,1.8
2022-09-06T17:46:16.469Z,1.7
2022-09-06T17:48:17.013Z,1.6
2022-09-06T17:52:16.660Z,1.8
2022-09-06T17:54:18.097Z,1.5
2022-09-06T17:56:17.957Z,1.8
2022-09-06T17:58:17.598Z,1.7
2022-09-06T18:00:17.085Z,1.9
2022-09-06T18:02:17.061Z,1.4
2022-09-06T18:04:18.413Z,1.6
2022-09-06T18:08:17.186Z,1.5
2022-09-06T18:10:17.946Z,1.7
2022-09-06T18:12:18.526Z,1.5
2022-09-06T18:14:19.728Z,1.7
2022-09-06T18:20:17.491Z,1.9
2022-09-06T18:22:17.693Z,1.8
2022-09-06T18:24:18.240Z,1.5
2022-09-06T18:26:17.599Z,1.9
2022-09-06T18:28:18.197Z,2.0
2022-09-06T18:30:18.052Z,2.1
2022-09-06T18:32:18.337Z,1.9
2022-09-06T18:34:18.341Z,2.2
2022-09-06T18:36:18.668Z,2.1
2022-09-06T18:38:18.268Z,1.9
2022-09-06T18:40:18.018Z,2.0
2022-09-06T18:42:17.986Z,2.1
2022-09-06T18:44:18.833Z,2.2
2022-09-06T18:48:18.791Z,1.8
2022-09-06T18:50:18.122Z,2.1
2022-09-06T18:52:19.408Z,2.3
2022-09-06T18:56:19.192Z,2.0
2022-09-06T18:58:18.328Z,2.4
2022-09-06T19:00:18.102Z,2.3
2022-09-06T19:02:18.217Z,2.1
2022-09-06T19:04:17.965Z,2.4
2022-09-06T19:06:19.944Z,2.2
2022-09-06T19:08:18.178Z,2.1
2022-09-06T19:12:17.989Z,2.3
2022-09-06T19:14:18.940Z,2.1
2022-09-06T19:18:19.133Z,2.0
2022-09-06T19:20:18.065Z,2.2
2022-09-06T19:22:18.054Z,1.8
2022-09-06T19:24:21.551Z,1.9
2022-09-06T19:28:17.924Z,2.1
2022-09-06T19:30:18.986Z,2.2
2022-09-06T19:32:21.187Z,2.0
2022-09-06T19:34:17.981Z,2.4
2022-09-06T19:36:19.797Z,2.0
2022-09-06T19:38:18.145Z,2.2
2022-09-06T19:42:18.233Z,2.1
2022-09-06T19:46:18.883Z,2.2
2022-09-06T19:50:18.069Z,2.0
2022-09-06T19:52:17.730Z,2.1
2022-09-06T19:56:19.910Z,2.4
2022-09-06T19:58:18.570Z,2.2
2022-09-06T20:00:17.880Z,2.5
2022-09-06T20:02:17.762Z,2.3
2022-09-06T20:06:18.093Z,2.1
2022-09-06T20:08:17.473Z,2.2
2022-09-06T20:12:17.423Z,2.0
2022-09-06T20:16:20.597Z,2.6
2022-09-06T20:18:19.488Z,1.9
2022-09-06T20:20:17.490Z,2.3
2022-09-06T20:24:17.346Z,2.4
2022-09-06T20:26:18.602Z,2.5
2022-09-06T20:30:17.615Z,2.2
2022-09-06T20:32:17.309Z,3.8
2022-09-06T20:34:17.669Z,2.3
2022-09-06T20:36:17.959Z,2.8
2022-09-06T20:38:17.298Z,2.5
2022-09-06T20:40:17.409Z,2.3
2022-09-06T20:42:17.338Z,2.2
2022-09-06T20:48:18.647Z,2.1
2022-09-06T20:50:17.236Z,2.5
2022-09-06T20:52:17.250Z,2.4
2022-09-06T20:56:18.691Z,2.3
2022-09-06T20:58:17.089Z,2.4
2022-09-06T21:00:17.181Z,2.2
2022-09-06T21:02:17.218Z,2.4
2022-09-06T21:04:17.115Z,2.3
2022-09-06T21:10:17.102Z,2.1
2022-09-06T21:12:17.184Z,2.0
2022-09-06T21:14:17.314Z,2.2
2022-09-06T21:16:21.859Z,2.4
2022-09-06T21:18:17.073Z,2.5
2022-09-06T21:20:16.977Z,2.8
2022-09-06T21:24:17.426Z,3.0
2022-09-06T21:26:17.244Z,2.7
2022-09-06T21:28:17.384Z,2.5
2022-09-06T21:30:17.837Z,3.0
2022-09-06T21:32:17.055Z,2.9
2022-09-06T21:36:18.695Z,3.0
2022-09-06T21:38:17.210Z,2.9
2022-09-06T21:40:17.042Z,3.2
2022-09-06T21:42:17.550Z,2.8
2022-09-06T21:44:16.934Z,3.0
2022-09-06T21:46:18.822Z,4.4
2022-09-06T21:48:17.821Z,4.5
2022-09-06T21:50:17.569Z,5.3
2022-09-06T21:52:17.048Z,5.9
2022-09-06T21:54:16.999Z,6.2
2022-09-06T21:56:18.626Z,5.2
2022-09-06T21:58:16.878Z,4.4
2022-09-06T22:00:16.946Z,4.3
2022-09-06T22:02:16.470Z,4.0
2022-09-06T22:04:16.262Z,4.4
2022-09-06T22:06:18.645Z,4.3
2022-09-06T22:08:17.228Z,4.0
2022-09-06T22:10:16.091Z,3.8
2022-09-06T22:12:15.802Z,3.7
2022-09-06T22:14:16.073Z,3.8
2022-09-06T22:16:17.767Z,4.0
2022-09-06T22:18:15.596Z,4.4
2022-09-06T22:20:16.143Z,4.5
2022-09-06T22:22:15.431Z,4.4
2022-09-06T22:24:15.446Z,4.3
2022-09-06T22:26:15.211Z,4.1
2022-09-06T22:28:15.120Z,4.2
2022-09-06T22:30:14.946Z,4.3
2022-09-06T22:32:15.129Z,4.7
2022-09-06T22:34:15.098Z,4.0
2022-09-06T22:36:15.005Z,4.5
2022-09-06T22:38:15.312Z,4.4
2022-09-06T22:40:15.196Z,4.2
2022-09-06T22:42:14.864Z,4.3
2022-09-06T22:44:14.902Z,4.4
2022-09-06T22:52:14.029Z,4.3
2022-09-06T22:54:13.827Z,4.6
2022-09-06T22:56:13.741Z,4.4
2022-09-06T23:00:14.120Z,5.0
2022-09-06T23:02:13.281Z,4.0
2022-09-06T23:04:13.372Z,5.2
2022-09-06T23:06:13.067Z,4.8
2022-09-06T23:08:13.676Z,4.5
2022-09-06T23:10:12.985Z,4.6
2022-09-06T23:12:12.706Z,4.4
2022-09-06T23:14:13.048Z,5.1
2022-09-06T23:16:14.901Z,4.8
2022-09-06T23:18:13.295Z,4.7
2022-09-06T23:20:13.171Z,4.8
2022-09-06T23:22:12.128Z,4.6
2022-09-06T23:24:12.118Z,5.1
2022-09-06T23:28:11.783Z,5.3
2022-09-06T23:30:11.796Z,4.7
2022-09-06T23:32:11.691Z,4.9
2022-09-06T23:34:12.101Z,5.3
2022-09-06T23:36:13.577Z,5.2
2022-09-06T23:38:11.454Z,5.1
2022-09-06T23:40:11.489Z,5.0
2022-09-06T23:46:12.526Z,4.3
2022-09-06T23:48:11.164Z,5.0
2022-09-06T23:50:10.688Z,4.8
2022-09-06T23:56:11.322Z,5.0
2022-09-06T23:58:10.790Z,5.5
